Time;durP1;ratioP1;P1;durP2;ratioP2;P2;SDS_P1;SDS_P2;PMS_P1;PMS_P2;Temp;Humidity;BMP_temperature;BMP_pressure;BME280_temperature;BME280_humidity;BME280_pressure;Samples;Min_cycle;Max_cycle;Signal;HPM_P1;HPM_P2
2023/10/23 00:02:17;;;;;;;;;;;;;;;22.84;51.69;101342.06;4959868;28;19926;-85
2023/10/23 00:04:43;;;;;;;;;;;;;;;22.82;51.84;101342.06;4950690;28;20626;-85
2023/10/23 00:07:08;;;;;;;;;;;;;;;22.81;51.66;101345.59;4946562;28;20404;-86
2023/10/23 00:09:34;;;;;;;;;;;;;;;22.77;51.87;101343.75;4953341;28;19922;-85
2023/10/23 00:11:59;;;;;;;;;;;;;;;22.77;52.03;101343.75;4955148;28;19992;-84
2023/10/23 00:14:25;;;;;;;;;;;;;;;22.75;52.03;101338.44;4972073;28;20004;-85
2023/10/23 00:16:50;;;;;;;;;;;;;;;22.77;51.86;101342.00;4940712;28;19929;-85
2023/10/23 00:19:16;;;;;;;;;;;;;;;22.77;52.12;101346.41;4972894;28;20300;-85
2023/10/23 00:21:42;;;;;;;;;;;;;;;22.76;52.02;101342.00;4946445;28;19922;-84
2023/10/23 00:24:08;;;;;;;;;;;;;;;22.73;52.00;101342.84;4968939;28;19915;-85
2023/10/23 00:26:39;;;;;;;;;;;;;;;22.71;52.30;101347.25;4966871;28;19979;-86
2023/10/23 00:29:04;;;;;;;;;;;;;;;22.72;52.15;101349.03;4932895;28;19945;-85
2023/10/23 00:31:30;;;;;;;;;;;;;;;22.77;52.22;101352.66;4941590;28;20539;-84
2023/10/23 00:33:55;;;;;;;;;;;;;;;22.72;52.33;101349.03;4975186;28;20435;-82
2023/10/23 00:36:21;;;;;;;;;;;;;;;22.74;52.32;101349.06;4961828;28;19914;-84
2023/10/23 00:38:46;;;;;;;;;;;;;;;22.70;52.22;101352.56;4974808;28;19918;-84
2023/10/23 00:41:11;;;;;;;;;;;;;;;22.71;52.45;101352.59;4952319;28;20021;-84
2023/10/23 00:43:37;;;;;;;;;;;;;;;22.71;52.02;101354.31;4941325;28;19915;-84
2023/10/23 00:46:04;;;;;;;;;;;;;;;22.67;52.29;101345.44;4964942;28;19925;-84
2023/10/23 00:48:30;;;;;;;;;;;;;;;22.65;52.36;101349.84;4941302;28;19918;-84
2023/10/23 00:50:57;;;;;;;;;;;;;;;22.66;52.29;101353.38;4957201;28;19914;-84
2023/10/23 00:53:22;;;;;;;;;;;;;;;22.67;52.18;101355.16;4974326;28;19915;-83
2023/10/23 00:55:49;;;;;;;;;;;;;;;22.64;52.17;101348.03;4954057;28;19918;-85
2023/10/23 00:58:14;;;;;;;;;;;;;;;22.65;52.14;101343.59;4941168;28;19918;-84
2023/10/23 01:00:40;;;;;;;;;;;;;;;22.62;52.34;101336.47;4957088;28;19924;-83
2023/10/23 01:03:06;;;;;;;;;;;;;;;22.64;52.50;101345.38;4937995;28;19918;-84
2023/10/23 01:05:31;;;;;;;;;;;;;;;22.62;52.53;101336.47;4956080;28;20403;-85
2023/10/23 01:07:57;;;;;;;;;;;;;;;22.62;52.58;101336.47;4954366;28;19967;-85
2023/10/23 01:10:22;;;;;;;;;;;;;;;22.61;52.53;101336.47;4953355;28;20014;-84
2023/10/23 01:12:48;;;;;;;;;;;;;;;22.60;52.53;101345.31;4939091;28;19958;-83
2023/10/23 01:15:13;;;;;;;;;;;;;;;22.59;52.31;101347.09;4955619;28;19918;-84
2023/10/23 01:17:38;;;;;;;;;;;;;;;22.58;52.65;101355.03;4972228;28;19972;-84
2023/10/23 01:20:05;;;;;;;;;;;;;;;22.60;52.49;101348.84;4965336;28;19926;-83
2023/10/23 01:22:30;;;;;;;;;;;;;;;22.58;52.53;101347.06;4948637;28;19930;-83
2023/10/23 01:24:55;;;;;;;;;;;;;;;22.59;52.41;101348.84;4973332;28;19918;-85
2023/10/23 01:27:21;;;;;;;;;;;;;;;22.60;52.36;101347.97;4966495;28;19989;-84
2023/10/23 01:29:46;;;;;;;;;;;;;;;22.58;52.41;101355.03;4945725;29;19968;-84
2023/10/23 01:32:12;;;;;;;;;;;;;;;22.61;52.28;101350.66;4953566;29;19914;-84
2023/10/23 01:34:37;;;;;;;;;;;;;;;22.59;52.35;101355.06;4963591;28;19918;-85
2023/10/23 01:37:03;;;;;;;;;;;;;;;22.56;52.44;101357.66;4956815;28;19918;-84
2023/10/23 01:39:28;;;;;;;;;;;;;;;22.55;52.41;101359.44;4972881;28;19929;-84
2023/10/23 01:41:54;;;;;;;;;;;;;;;22.58;52.39;101352.38;4967522;28;19930;-85
2023/10/23 01:44:19;;;;;;;;;;;;;;;22.53;52.39;101361.19;4962875;28;19919;-85
2023/10/23 01:46:45;;;;;;;;;;;;;;;22.54;52.21;101351.44;4942885;28;19945;-83
2023/10/23 01:49:10;;;;;;;;;;;;;;;22.55;52.48;101354.13;4971781;28;19918;-85
2023/10/23 01:51:35;;;;;;;;;;;;;;;22.54;52.28;101356.75;4970377;28;19970;-84
2023/10/23 01:54:01;;;;;;;;;;;;;;;22.51;52.38;101354.06;4948566;28;19934;-84
2023/10/23 01:56:26;;;;;;;;;;;;;;;22.52;52.47;101354.09;4952454;28;20430;-84
2023/10/23 01:58:52;;;;;;;;;;;;;;;22.49;52.44;101348.72;4952818;28;19918;-84
2023/10/23 02:01:19;;;;;;;;;;;;;;;22.49;52.49;101348.72;4952557;28;19921;-84
2023/10/23 02:03:44;;;;;;;;;;;;;;;22.50;52.60;101349.59;4950764;28;20391;-84
2023/10/23 02:06:09;;;;;;;;;;;;;;;22.48;52.53;101349.59;4973258;28;19972;-84
2023/10/23 02:08:35;;;;;;;;;;;;;;;22.47;52.54;101347.78;4970484;28;20000;-84
2023/10/23 02:11:00;;;;;;;;;;;;;;;22.44;52.55;101352.19;4933680;28;20012;-85
2023/10/23 02:13:26;;;;;;;;;;;;;;;22.44;52.54;101358.41;4940504;28;20369;-83
2023/10/23 02:15:51;;;;;;;;;;;;;;;22.45;52.60;101351.31;4972080;28;19950;-83
2023/10/23 02:18:16;;;;;;;;;;;;;;;22.45;52.41;101362.84;4952875;28;19925;-84
2023/10/23 02:20:42;;;;;;;;;;;;;;;22.45;52.30;101353.97;4965919;28;20038;-84
2023/10/23 02:23:07;;;;;;;;;;;;;;;22.46;52.59;101362.00;4954824;28;19925;-85
2023/10/23 02:25:33;;;;;;;;;;;;;;;22.45;52.57;101370.81;4970842;28;19952;-84
2023/10/23 02:27:58;;;;;;;;;;;;;;;22.43;52.65;101371.69;4967899;28;20005;-85
2023/10/23 02:30:24;;;;;;;;;;;;;;;22.43;52.69;101371.69;4968394;28;19983;-84
2023/10/23 02:32:49;;;;;;;;;;;;;;;22.44;52.59;101371.72;4939554;28;19997;-84
2023/10/23 02:35:15;;;;;;;;;;;;;;;22.40;52.68;101366.31;4963069;28;19921;-86
2023/10/23 02:37:40;;;;;;;;;;;;;;;22.39;52.74;101372.50;4971320;28;19922;-85
2023/10/23 02:40:06;;;;;;;;;;;;;;;22.42;52.67;101362.81;4954225;28;19929;-85
2023/10/23 02:42:32;;;;;;;;;;;;;;;;;;4948218;28;19922;-85
2023/10/23 02:44:57;;;;;;;;;;;;;;;;;;4969005;28;19924;-85
2023/10/23 02:47:22;;;;;;;;;;;;;;;22.38;52.68;101371.63;4970201;28;19914;-85
2023/10/23 02:49:48;;;;;;;;;;;;;;;22.39;52.74;101367.19;4959367;28;19919;-85
2023/10/23 02:52:15;;;;;;;;;;;;;;;;;;4963766;28;19953;-84
2023/10/23 02:54:40;;;;;;;;;;;;;;;22.40;52.79;101379.63;4955142;28;19918;-86
2023/10/23 02:57:07;;;;;;;;;;;;;;;22.36;52.68;101371.59;4971464;28;19921;-86
2023/10/23 02:59:32;;;;;;;;;;;;;;;22.36;52.75;101379.56;4951660;28;20308;-85
2023/10/23 03:01:58;;;;;;;;;;;;;;;22.36;52.77;101382.22;4953321;28;19920;-85
2023/10/23 03:04:23;;;;;;;;;;;;;;;22.32;52.82;101383.06;4950105;28;19928;-86
2023/10/23 03:06:49;;;;;;;;;;;;;;;22.32;52.89;101384.81;4953108;28;19921;-86
2023/10/23 03:09:14;;;;;;;;;;;;;;;22.35;52.85;101384.84;4956714;28;19986;-86
2023/10/23 03:11:39;;;;;;;;;;;;;;;22.30;52.97;101383.91;4957857;28;19917;-86
2023/10/23 03:14:07;;;;;;;;;;;;;;;22.29;53.00;101387.47;4971699;28;20558;-85
2023/10/23 03:16:33;;;;;;;;;;;;;;;22.26;53.02;101385.63;4952802;28;20577;-86
2023/10/23 03:18:58;;;;;;;;;;;;;;;22.34;52.99;101388.41;4953857;28;19961;-86
2023/10/23 03:21:24;;;;;;;;;;;;;;;22.31;52.93;101381.28;4972303;28;19926;-85
2023/10/23 03:23:50;;;;;;;;;;;;;;;22.27;53.21;101387.44;4960237;28;19930;-86
2023/10/23 03:26:15;;;;;;;;;;;;;;;22.26;52.98;101382.94;4955188;28;19914;-86
2023/10/23 03:28:41;;;;;;;;;;;;;;;22.31;52.99;101388.38;4972072;28;19980;-86
2023/10/23 03:31:06;;;;;;;;;;;;;;;22.25;53.05;101385.63;4948093;28;19921;-85
2023/10/23 03:33:32;;;;;;;;;;;;;;;22.29;53.04;101391.00;4961170;28;19919;-86
2023/10/23 03:35:57;;;;;;;;;;;;;;;22.25;53.00;101380.28;4956888;28;19918;-85
2023/10/23 03:38:23;;;;;;;;;;;;;;;22.23;53.20;101388.25;4952840;28;19926;-86
2023/10/23 03:40:58;;;;;;;;;;;;;;;22.24;53.13;101384.69;4947235;28;19976;-86
2023/10/23 03:43:24;;;;;;;;;;;;;;;22.26;53.19;101379.41;4953213;28;19922;-85
2023/10/23 03:45:49;;;;;;;;;;;;;;;22.23;53.29;101388.25;4976056;28;19918;-85
2023/10/23 03:48:14;;;;;;;;;;;;;;;22.22;53.18;101393.50;4974839;28;19925;-85
2023/10/23 03:50:40;;;;;;;;;;;;;;;22.21;53.18;101392.59;4973592;28;20580;-85
2023/10/23 03:53:05;;;;;;;;;;;;;;;22.16;53.24;101388.97;4956728;28;19918;-85
2023/10/23 03:55:35;;;;;;;;;;;;;;;22.21;53.34;101395.28;4974693;28;19925;-85
2023/10/23 03:58:00;;;;;;;;;;;;;;;22.23;53.18;101387.34;4955552;28;19918;-85
2023/10/23 04:00:26;;;;;;;;;;;;;;;22.17;53.23;101380.13;4957127;28;20574;-85
2023/10/23 04:02:52;;;;;;;;;;;;;;;22.17;53.13;101385.44;4973709;28;20016;-85
2023/10/23 04:05:17;;;;;;;;;;;;;;;22.17;53.20;101388.09;4973369;28;19921;-85
2023/10/23 04:07:42;;;;;;;;;;;;;;;22.15;53.28;101381.88;4957105;28;19976;-85
2023/10/23 04:10:08;;;;;;;;;;;;;;;22.15;52.93;101374.78;4952504;28;19941;-85
2023/10/23 04:12:34;;;;;;;;;;;;;;;22.14;53.33;101380.09;4971843;28;19922;-85
2023/10/23 04:15:01;;;;;;;;;;;;;;;22.18;53.09;101381.91;4957209;28;19926;-85
2023/10/23 04:17:27;;;;;;;;;;;;;;;22.14;53.19;101385.41;4974150;28;20021;-85
2023/10/23 04:19:52;;;;;;;;;;;;;;;22.15;53.15;101392.50;4953249;28;19926;-85
2023/10/23 04:22:17;;;;;;;;;;;;;;;22.12;53.19;101385.38;4971762;28;19922;-84
2023/10/23 04:24:43;;;;;;;;;;;;;;;22.13;53.29;101384.50;4971524;28;19941;-85
2023/10/23 04:27:08;;;;;;;;;;;;;;;22.13;53.10;101383.59;4954819;28;19922;-85
2023/10/23 04:29:34;;;;;;;;;;;;;;;22.11;53.20;101385.34;4970052;28;19926;-84
2023/10/23 04:31:59;;;;;;;;;;;;;;;22.06;53.28;101393.25;4969433;28;19925;-85
2023/10/23 04:34:25;;;;;;;;;;;;;;;22.06;53.37;101395.91;4950231;28;21386;-85
2023/10/23 04:36:53;;;;;;;;;;;;;;;22.04;53.32;101394.09;4968568;28;19914;-85
2023/10/23 04:39:19;;;;;;;;;;;;;;;22.02;53.39;101393.19;4954734;28;19945;-86
2023/10/23 04:41:48;;;;;;;;;;;;;;;21.99;53.46;101394.00;4966950;28;20403;-84
2023/10/23 04:44:14;;;;;;;;;;;;;;;22.01;53.33;101396.69;4955117;28;19918;-84
2023/10/23 04:46:39;;;;;;;;;;;;;;;22.05;53.28;101401.19;4964890;28;19929;-87
2023/10/23 04:49:05;;;;;;;;;;;;;;;22.04;53.25;101402.97;4973106;28;19985;-87
2023/10/23 04:51:32;;;;;;;;;;;;;;;22.04;53.22;101397.66;4972578;28;19925;-86
2023/10/23 04:53:57;;;;;;;;;;;;;;;22.04;53.22;101399.41;4956059;28;19926;-87
2023/10/23 04:56:23;;;;;;;;;;;;;;;22.03;53.33;101398.50;4946368;28;19925;-86
2023/10/23 04:58:48;;;;;;;;;;;;;;;22.04;53.27;101404.75;4952066;28;20182;-87
2023/10/23 05:01:22;;;;;;;;;;;;;;;22.03;53.30;101395.84;4963213;28;19926;-86
2023/10/23 05:03:47;;;;;;;;;;;;;;;22.03;53.45;101398.50;4973477;28;19922;-87
2023/10/23 05:06:13;;;;;;;;;;;;;;;21.99;53.36;101406.41;4954029;28;20296;-85
2023/10/23 05:08:38;;;;;;;;;;;;;;;22.00;53.42;101419.75;4955581;28;19918;-85
2023/10/23 05:11:04;;;;;;;;;;;;;;;21.98;53.50;101420.59;4965702;28;19928;-83
2023/10/23 05:13:29;;;;;;;;;;;;;;;21.98;53.54;101424.13;4954467;28;19929;-84
2023/10/23 05:16:01;;;;;;;;;;;;;;;21.96;53.53;101432.09;4968776;28;19941;-84
2023/10/23 05:18:26;;;;;;;;;;;;;;;21.97;53.50;101438.31;4970739;28;19918;-85
2023/10/23 05:20:51;;;;;;;;;;;;;;;21.98;53.52;101436.53;4958029;28;19926;-85
2023/10/23 05:23:17;;;;;;;;;;;;;;;21.98;53.45;101442.75;4969586;28;19926;-86
2023/10/23 05:25:46;;;;;;;;;;;;;;;22.00;53.52;101448.09;4953259;28;19918;-86
2023/10/23 05:28:12;;;;;;;;;;;;;;;21.96;53.49;101450.69;4952209;28;19918;-83
2023/10/23 05:30:37;;;;;;;;;;;;;;;21.98;53.42;101455.16;4970106;28;19933;-85
2023/10/23 05:33:03;;;;;;;;;;;;;;;21.95;53.42;101456.00;4950845;28;20351;-85
2023/10/23 05:35:28;;;;;;;;;;;;;;;21.92;53.58;101454.16;4943321;28;20051;-84
2023/10/23 05:37:54;;;;;;;;;;;;;;;21.93;53.55;101460.41;4966082;28;19929;-84
2023/10/23 05:40:19;;;;;;;;;;;;;;;21.95;53.48;101456.91;4965840;28;20008;-83
2023/10/23 05:42:45;;;;;;;;;;;;;;;21.95;53.43;101454.25;4966075;28;20017;-86
2023/10/23 05:45:10;;;;;;;;;;;;;;;21.98;53.31;101463.16;4964157;28;19925;-84
2023/10/23 05:47:35;;;;;;;;;;;;;;;21.93;53.56;101463.06;4971237;28;19953;-84
2023/10/23 05:50:01;;;;;;;;;;;;;;;21.90;53.65;101465.66;4969282;28;20383;-85
2023/10/23 05:52:26;;;;;;;;;;;;;;;21.90;53.56;101470.97;4972102;28;20426;-84
2023/10/23 05:54:52;;;;;;;;;;;;;;;21.89;53.65;101467.41;4955847;28;20001;-85
2023/10/23 05:57:17;;;;;;;;;;;;;;;21.92;53.44;101470.13;4950514;28;19926;-84
2023/10/23 05:59:43;;;;;;;;;;;;;;;21.92;53.53;101470.13;4961708;28;19922;-85
2023/10/23 06:02:08;;;;;;;;;;;;;;;21.94;53.57;101475.47;4971833;28;19925;-85
2023/10/23 06:04:34;;;;;;;;;;;;;;;21.95;53.67;101479.94;4954737;28;19926;-85
2023/10/23 06:07:00;;;;;;;;;;;;;;;21.92;53.45;101474.56;4970448;28;19922;-85
2023/10/23 06:09:26;;;;;;;;;;;;;;;21.94;53.60;101483.47;4964908;28;19918;-85
2023/10/23 06:11:51;;;;;;;;;;;;;;;21.73;55.61;101482.16;4972071;28;19941;-87
2023/10/23 06:14:17;;;;;;;;;;;;;;;21.58;56.74;101479.22;4959988;28;20301;-85
2023/10/23 06:16:42;;;;;;;;;;;;;;;21.70;55.83;101476.81;4972933;28;19914;-84
2023/10/23 06:19:08;;;;;;;;;;;;;;;21.79;55.31;101468.09;4955768;28;19961;-85
2023/10/23 06:21:34;;;;;;;;;;;;;;;21.84;55.01;101470.84;4955012;28;19926;-84
2023/10/23 06:23:59;;;;;;;;;;;;;;;21.88;54.73;101473.59;4950315;28;19929;-85
2023/10/23 06:26:25;;;;;;;;;;;;;;;21.88;54.82;101480.69;4963562;28;19993;-86
2023/10/23 06:28:50;;;;;;;;;;;;;;;21.88;54.54;101484.22;4947998;28;19925;-85
2023/10/23 06:31:15;;;;;;;;;;;;;;;21.88;54.53;101484.22;4949760;28;19926;-87
2023/10/23 06:33:44;;;;;;;;;;;;;;;21.88;54.77;101486.00;4953779;28;20431;-85
2023/10/23 06:36:09;;;;;;;;;;;;;;;21.88;54.55;101486.00;4970216;28;19918;-85
2023/10/23 06:38:35;;;;;;;;;;;;;;;21.87;54.58;101487.75;4951501;28;20459;-84
2023/10/23 06:41:01;;;;;;;;;;;;;;;21.87;54.56;101481.56;4938306;28;19918;-84
2023/10/23 06:43:27;;;;;;;;;;;;;;;21.84;54.53;101482.38;4963139;28;20304;-85
2023/10/23 06:45:52;;;;;;;;;;;;;;;21.85;54.46;101476.19;4953808;28;19922;-83
2023/10/23 06:48:18;;;;;;;;;;;;;;;21.83;54.72;101472.63;4948391;28;19926;-83
2023/10/23 06:50:47;;;;;;;;;;;;;;;21.87;54.23;101476.25;4966472;28;19918;-84
2023/10/23 06:53:13;;;;;;;;;;;;;;;21.84;54.49;101471.72;4965695;28;19918;-84
2023/10/23 06:55:46;;;;;;;;;;;;;;;21.86;54.32;101467.34;4968256;28;19949;-84
2023/10/23 06:58:11;;;;;;;;;;;;;;;21.88;54.36;101467.38;4948163;28;19919;-84
2023/10/23 07:00:36;;;;;;;;;;;;;;;21.86;54.30;101466.47;4964971;28;20064;-85
2023/10/23 07:03:02;;;;;;;;;;;;;;;21.86;54.44;101458.47;4953975;28;20379;-84
2023/10/23 07:05:27;;;;;;;;;;;;;;;21.85;54.24;101465.56;4965887;28;20407;-85
2023/10/23 07:07:53;;;;;;;;;;;;;;;21.84;54.35;101461.09;4946722;28;20316;-85
2023/10/23 07:10:18;;;;;;;;;;;;;;;21.83;54.25;101466.41;4968363;28;20394;-83
2023/10/23 07:12:43;;;;;;;;;;;;;;;21.82;54.31;101461.94;4971699;28;20383;-84
2023/10/23 07:15:09;;;;;;;;;;;;;;;21.85;54.27;101467.34;4946801;28;19989;-84
2023/10/23 07:17:34;;;;;;;;;;;;;;;21.82;54.10;101465.50;4967729;28;19973;-85
2023/10/23 07:20:00;;;;;;;;;;;;;;;21.82;54.31;101468.16;4952416;28;19925;-85
2023/10/23 07:22:25;;;;;;;;;;;;;;;21.84;54.34;101471.72;4967357;28;19980;-85
2023/10/23 07:24:53;;;;;;;;;;;;;;;21.83;54.40;101464.66;4969820;28;20008;-85
2023/10/23 07:27:19;;;;;;;;;;;;;;;21.83;54.34;101463.75;4951575;28;20008;-83
2023/10/23 07:29:44;;;;;;;;;;;;;;;21.80;55.19;101466.34;4965611;28;20382;-84
2023/10/23 07:32:10;;;;;;;;;;;;;;;21.78;57.00;101470.72;4967277;28;19915;-83
2023/10/23 07:34:36;;;;;;;;;;;;;;;21.83;57.65;101461.97;4963262;28;19926;-83
2023/10/23 07:37:03;;;;;;;;;;;;;;;21.83;57.47;101467.31;4969852;28;19914;-82
2023/10/23 07:39:28;;;;;;;;;;;;;;;21.79;57.94;101462.78;4965870;28;20008;-84
2023/10/23 07:41:54;;;;;;;;;;;;;;;21.74;58.74;101468.03;4965961;28;19993;-83
2023/10/23 07:44:20;;;;;;;;;;;;;;;21.76;59.18;101460.09;4966078;28;19965;-84
2023/10/23 07:46:46;;;;;;;;;;;;;;;21.73;59.45;101455.59;4967897;28;20447;-84
2023/10/23 07:49:11;;;;;;;;;;;;;;;21.81;58.92;101447.75;4951082;28;20026;-85
2023/10/23 07:51:37;;;;;;;;;;;;;;;21.73;58.38;101450.25;4970117;28;20009;-86
2023/10/23 07:54:03;;;;;;;;;;;;;;;21.79;57.79;101451.25;4968012;28;19937;-86
2023/10/23 07:56:28;;;;;;;;;;;;;;;21.81;57.39;101454.84;4965903;28;20017;-86
2023/10/23 07:58:54;;;;;;;;;;;;;;;21.78;56.98;101461.00;4949979;28;20380;-85
2023/10/23 08:01:19;;;;;;;;;;;;;;;21.82;56.74;101461.94;4964435;28;20386;-87
2023/10/23 08:03:44;;;;;;;;;;;;;;;21.78;56.69;101450.38;4951808;28;19926;-86
2023/10/23 08:06:10;;;;;;;;;;;;;;;21.80;56.41;101448.66;4952816;28;19914;-87
2023/10/23 08:08:38;;;;;;;;;;;;;;;21.82;56.07;101448.66;4948369;28;19919;-87
2023/10/23 08:11:03;;;;;;;;;;;;;;;21.85;56.18;101451.38;4937591;28;20004;-86
2023/10/23 08:13:29;;;;;;;;;;;;;;;21.83;55.99;101448.69;4966789;28;20357;-82
2023/10/23 08:15:54;;;;;;;;;;;;;;;21.83;55.66;101447.81;4964034;28;19918;-81
2023/10/23 08:18:20;;;;;;;;;;;;;;;21.87;55.75;101447.88;4966736;28;20423;-81
2023/10/23 08:20:45;;;;;;;;;;;;;;;21.85;55.78;101449.63;4967290;28;19937;-82
2023/10/23 08:23:13;;;;;;;;;;;;;;;21.86;55.59;101459.38;4963504;28;20414;-81
2023/10/23 08:25:41;;;;;;;;;;;;;;;21.85;55.79;101459.38;4967285;28;19918;-82
2023/10/23 08:28:08;;;;;;;;;;;;;;;21.86;55.54;101455.81;4970517;28;19985;-82
2023/10/23 08:30:34;;;;;;;;;;;;;;;21.85;55.72;101456.69;4970890;28;19918;-81
2023/10/23 08:32:59;;;;;;;;;;;;;;;21.82;55.88;101454.84;4967670;28;19922;-83
2023/10/23 08:35:27;;;;;;;;;;;;;;;21.86;55.71;101464.69;4954702;28;19922;-84
2023/10/23 08:37:53;;;;;;;;;;;;;;;21.87;55.60;101460.28;4962003;28;19990;-85
2023/10/23 08:40:19;;;;;;;;;;;;;;;21.86;55.78;101467.34;4967146;28;19930;-85
2023/10/23 08:42:45;;;;;;;;;;;;;;;21.86;55.71;101462.03;4970554;28;19922;-85
2023/10/23 08:45:10;;;;;;;;;;;;;;;21.86;55.77;101462.03;4970738;28;19925;-81
2023/10/23 08:47:36;;;;;;;;;;;;;;;21.87;55.96;101462.94;4952700;28;19914;-80
2023/10/23 08:50:03;;;;;;;;;;;;;;;21.83;55.83;101459.31;4967381;28;19918;-80
2023/10/23 08:52:32;;;;;;;;;;;;;;;21.84;55.95;101461.09;4964495;28;19945;-80
2023/10/23 08:54:57;;;;;;;;;;;;;;;21.83;55.58;101461.97;4948116;28;19927;-79
2023/10/23 08:57:22;;;;;;;;;;;;;;;21.87;55.51;101462.94;4970880;28;19914;-79
2023/10/23 08:59:48;;;;;;;;;;;;;;;21.86;55.66;101458.47;4965746;28;19926;-80
2023/10/23 09:02:13;;;;;;;;;;;;;;;21.81;55.83;101460.16;4964955;28;20560;-80
2023/10/23 09:04:39;;;;;;;;;;;;;;;21.77;55.58;101458.31;4953223;28;20323;-79
2023/10/23 09:07:04;;;;;;;;;;;;;;;21.77;55.91;101456.53;4971309;28;19933;-80
2023/10/23 09:09:30;;;;;;;;;;;;;;;21.77;55.68;101455.66;4949011;28;19918;-80
2023/10/23 09:11:56;;;;;;;;;;;;;;;21.77;55.93;101463.63;4952339;28;19918;-82
2023/10/23 09:14:25;;;;;;;;;;;;;;;21.96;59.78;101466.66;4970224;28;19941;-86
2023/10/23 09:16:51;;;;;;;;;;;;;;;22.07;63.17;101465.97;4969808;28;19925;-81
2023/10/23 09:19:23;;;;;;;;;;;;;;;21.88;60.43;101457.63;4976488;28;19922;-79
2023/10/23 09:21:49;;;;;;;;;;;;;;;21.89;59.90;101461.22;4974902;28;19926;-79
2023/10/23 09:24:15;;;;;;;;;;;;;;;21.88;60.04;101454.09;4955990;28;19922;-79
2023/10/23 09:26:45;;;;;;;;;;;;;;;21.90;59.60;101455.00;4953774;28;19937;-78
2023/10/23 09:29:10;;;;;;;;;;;;;;;21.90;59.08;101452.34;4940193;28;19914;-78
2023/10/23 09:31:36;;;;;;;;;;;;;;;21.86;58.39;101447.84;4971892;28;19915;-80
2023/10/23 09:34:02;;;;;;;;;;;;;;;21.78;58.12;101446.81;4951130;28;19929;-80
2023/10/23 09:36:31;;;;;;;;;;;;;;;21.73;57.73;101441.41;4969020;28;19918;-80
2023/10/23 09:38:58;;;;;;;;;;;;;;;21.73;57.93;101446.72;4942779;28;19914;-80
2023/10/23 09:41:23;;;;;;;;;;;;;;;21.71;57.57;101443.13;4955825;28;19921;-80
2023/10/23 09:43:49;;;;;;;;;;;;;;;21.80;57.37;101439.75;4973681;28;20009;-80
2023/10/23 09:46:14;;;;;;;;;;;;;;;21.78;57.26;101439.75;4955414;28;19918;-80
2023/10/23 09:48:44;;;;;;;;;;;;;;;21.82;57.14;101441.56;4967825;28;20396;-81
2023/10/23 09:51:16;;;;;;;;;;;;;;;21.79;57.08;101441.53;4949329;28;19997;-81
2023/10/23 09:53:48;;;;;;;;;;;;;;;21.72;57.08;101435.19;4954085;28;19914;-79
2023/10/23 09:56:20;;;;;;;;;;;;;;;21.80;56.78;101437.09;4968235;28;19922;-81
2023/10/23 09:58:47;;;;;;;;;;;;;;;21.73;56.87;101436.97;4973667;28;20315;-79
2023/10/23 10:01:13;;;;;;;;;;;;;;;21.85;56.58;101435.44;4946059;28;20388;-81
2023/10/23 10:03:39;;;;;;;;;;;;;;;21.81;56.64;101434.47;4946052;29;19922;-82
2023/10/23 10:06:09;;;;;;;;;;;;;;;21.79;56.45;101430.88;4952877;28;19917;-81
2023/10/23 10:08:36;;;;;;;;;;;;;;;21.79;56.59;101430.00;4946589;28;20408;-81
2023/10/23 10:11:02;;;;;;;;;;;;;;;21.79;56.49;101425.56;4954128;28;20403;-81
2023/10/23 10:13:27;;;;;;;;;;;;;;;21.82;56.34;101427.38;4947654;28;19914;-81
2023/10/23 10:15:53;;;;;;;;;;;;;;;21.79;56.35;101424.69;4960382;28;20311;-82
2023/10/23 10:18:18;;;;;;;;;;;;;;;21.80;56.31;101426.44;4955163;28;20384;-81
2023/10/23 10:20:47;;;;;;;;;;;;;;;21.79;56.32;101422.03;4968393;28;19922;-81
2023/10/23 10:23:14;;;;;;;;;;;;;;;21.80;56.34;101419.41;4948395;28;19925;-81
2023/10/23 10:25:41;;;;;;;;;;;;;;;21.75;56.27;101421.94;4955825;28;19949;-80
2023/10/23 10:28:07;;;;;;;;;;;;;;;21.74;56.38;101419.28;4956247;28;19964;-81
2023/10/23 10:30:42;;;;;;;;;;;;;;;21.78;56.19;101418.47;4968070;28;20373;-81
2023/10/23 10:33:12;;;;;;;;;;;;;;;21.73;56.28;101410.38;4954980;28;19915;-80
2023/10/23 10:35:37;;;;;;;;;;;;;;;21.75;56.37;101406.00;4944825;29;19973;-81
2023/10/23 10:38:03;;;;;;;;;;;;;;;21.73;56.30;101406.84;4955417;28;19914;-81
2023/10/23 10:40:46;;;;;;;;;;;;;;;21.77;56.21;101407.81;4968638;28;19929;-80
2023/10/23 10:43:18;;;;;;;;;;;;;;;21.75;56.26;101397.13;4948890;28;19957;-80
2023/10/23 10:45:43;;;;;;;;;;;;;;;21.74;56.26;101395.34;4942810;28;19915;-80
2023/10/23 10:48:09;;;;;;;;;;;;;;;21.77;56.23;101392.75;4954432;28;19952;-80
2023/10/23 10:50:35;;;;;;;;;;;;;;;21.75;56.32;101391.81;4972794;28;19918;-79
2023/10/23 10:53:04;;;;;;;;;;;;;;;21.78;56.14;101385.66;4972438;28;20395;-80
2023/10/23 10:55:30;;;;;;;;;;;;;;;21.75;56.24;101383.84;4972695;28;20432;-80
2023/10/23 10:57:56;;;;;;;;;;;;;;;21.76;56.30;101385.66;4955082;28;19997;-80
2023/10/23 11:00:22;;;;;;;;;;;;;;;21.75;56.17;101382.06;4955241;28;19918;-80
2023/10/23 11:02:48;;;;;;;;;;;;;;;21.79;56.12;101374.16;4971969;28;20191;-80
2023/10/23 11:05:14;;;;;;;;;;;;;;;21.71;56.28;101377.56;4972101;28;20601;-80
2023/10/23 11:07:39;;;;;;;;;;;;;;;21.72;56.22;101378.47;4972467;28;19945;-80
2023/10/23 11:10:05;;;;;;;;;;;;;;;21.72;56.27;101378.47;4972744;28;19918;-80
2023/10/23 11:12:30;;;;;;;;;;;;;;;21.75;56.16;101382.06;4971943;28;19930;-80
2023/10/23 11:14:55;;;;;;;;;;;;;;;21.74;56.14;101372.31;4972571;28;19914;-80
2023/10/23 11:17:21;;;;;;;;;;;;;;;21.75;56.11;101374.09;4959382;28;19921;-80
2023/10/23 11:19:46;;;;;;;;;;;;;;;21.75;56.08;101370.53;4953940;28;19922;-80
2023/10/23 11:22:12;;;;;;;;;;;;;;;21.76;56.20;101372.34;4971553;28;19980;-80
2023/10/23 11:24:38;;;;;;;;;;;;;;;21.77;56.13;101367.94;4972126;28;19982;-80
2023/10/23 11:27:04;;;;;;;;;;;;;;;21.77;56.09;101366.16;4959398;28;20597;-80
2023/10/23 11:29:56;;;;;;;;;;;;;;;21.79;56.05;101372.38;4969860;28;20005;-80
2023/10/23 11:32:21;;;;;;;;;;;;;;;21.79;56.09;101371.50;4949191;28;19918;-81
2023/10/23 11:34:47;;;;;;;;;;;;;;;21.83;56.13;101373.34;4971070;28;20004;-80
2023/10/23 11:37:12;;;;;;;;;;;;;;;21.85;56.02;101371.63;4971644;28;20519;-80
2023/10/23 11:39:39;;;;;;;;;;;;;;;22.29;58.99;101374.16;4965987;28;19930;-80
2023/10/23 11:42:05;;;;;;;;;;;;;;;22.07;58.26;101373.75;4962131;28;20243;-80
2023/10/23 11:44:31;;;;;;;;;;;;;;;22.06;58.10;101381.72;4960494;28;20384;-80
2023/10/23 11:46:57;;;;;;;;;;;;;;;21.99;57.76;101377.16;4968719;28;19918;-81
2023/10/23 11:49:25;;;;;;;;;;;;;;;21.95;57.33;101377.13;4969144;28;19933;-80
2023/10/23 11:51:51;;;;;;;;;;;;;;;21.95;57.39;101370.91;4963817;28;20016;-80
2023/10/23 11:54:17;;;;;;;;;;;;;;;21.99;57.14;101379.81;4969988;28;19922;-80
2023/10/23 11:56:43;;;;;;;;;;;;;;;22.00;57.07;101384.28;4968069;28;19978;-80
2023/10/23 11:59:13;;;;;;;;;;;;;;;22.00;56.90;101382.50;4953964;28;19922;-80
2023/10/23 12:01:39;;;;;;;;;;;;;;;22.00;56.76;101381.63;4972642;28;19918;-81
2023/10/23 12:04:05;;;;;;;;;;;;;;;22.04;56.73;101376.38;4979626;28;19928;-79
2023/10/23 12:06:30;;;;;;;;;;;;;;;22.01;56.65;101380.72;4964531;28;19964;-80
2023/10/23 12:08:56;;;;;;;;;;;;;;;22.05;56.58;101372.81;4939401;28;19957;-80
2023/10/23 12:11:22;;;;;;;;;;;;;;;22.06;56.50;101381.72;4940677;28;19918;-80
2023/10/23 12:13:48;;;;;;;;;;;;;;;22.08;56.46;101380.88;4962975;28;19914;-79
2023/10/23 12:16:14;;;;;;;;;;;;;;;22.06;56.50;101382.63;4963363;28;20364;-80
2023/10/23 12:18:40;;;;;;;;;;;;;;;22.10;56.51;101381.78;4975133;28;19920;-81
2023/10/23 12:21:05;;;;;;;;;;;;;;;22.11;56.38;101386.22;4975669;28;20374;-83
2023/10/23 12:23:31;;;;;;;;;;;;;;;22.10;56.55;101391.56;4957179;28;19914;-79
2023/10/23 12:25:56;;;;;;;;;;;;;;;22.11;56.46;101385.34;4958357;28;20426;-80
2023/10/23 12:28:21;;;;;;;;;;;;;;;22.12;56.36;101388.03;4975197;28;19921;-79
2023/10/23 12:30:47;;;;;;;;;;;;;;;22.11;56.39;101388.00;4970559;28;20384;-80
2023/10/23 12:33:12;;;;;;;;;;;;;;;22.14;56.26;101380.97;4962277;28;19914;-80